Apiliotis — SYVY — position and weather

sailwx.info

Track history (hours):
 
Tides and Currents Weather Stations Pressure Air Temp Water Temp Dewpoint Dewpoint Depression Visibility Wind Speed Wind Dir Waves Ship Positions

Apiliotis

Last reported at 2018-Jun-21 19:27 UTC. Time now 2018-Jun-23 09:54 UTC.
Position N 37°22' E 023°60'.

Length 79 m; draft 4.5 m.

Type: Ship. MMSI: 240438000.

Date/timePositionNaut miles runAvg speedWind from/ knotsBaromVisibWave heightAir tempDewpointWater temp
2018-Jun-21 19:27N 37°22' E 023°60'6 8.7
2018-Jun-21 18:47N 37°26' E 023°55'3 8.6
2018-Jun-21 18:29N 37°28' E 023°52'5 8.8
2018-Jun-21 17:54N 37°32' E 023°48'3 8.6
2018-Jun-21 17:31N 37°35' E 023°46'4 8.6
2018-Jun-21 17:00N 37°38' E 023°43'4 8.7
2018-Jun-21 16:31N 37°42' E 023°41'4 8.7
2018-Jun-21 16:00N 37°46' E 023°38'4 8.5
2018-Jun-21 15:31N 37°50' E 023°37'4 8.4
2018-Jun-21 15:01N 37°54' E 023°36'4 7.2
2018-Jun-21 14:31N 37°57' E 023°34'5 9.4
2018-Jun-21 14:01N 38°02' E 023°32'0 0.4
2018-Jun-21 13:30N 38°02' E 023°32'1 1.2
2018-Jun-21 13:00N 38°02' E 023°32'0 0.1
2018-Jun-21 12:30N 38°02' E 023°32'0 0.0
2018-Jun-21 12:01N 38°02' E 023°32'0 0.0
2018-Jun-21 11:31N 38°02' E 023°32'0 0.0
2018-Jun-21 11:00N 38°02' E 023°32'0 0.0
2018-Jun-21 10:30N 38°02' E 023°32'0 0.0
2018-Jun-21 10:00N 38°02' E 023°32'0 0.1
2018-Jun-21 09:30N 38°02' E 023°32'0 0.0
2018-Jun-21 09:01N 38°02' E 023°32'0 0.0
2018-Jun-21 08:31N 38°02' E 023°32'0 0.0
2018-Jun-21 08:00N 38°02' E 023°32'0 0.0
2018-Jun-21 07:30N 38°02' E 023°32'0 0.0
2018-Jun-21 07:01N 38°02' E 023°32'0 0.0
2018-Jun-21 06:31N 38°02' E 023°32'0 0.0
2018-Jun-21 06:00N 38°02' E 023°32'0 0.0
2018-Jun-21 05:30N 38°02' E 023°32'0 0.0
2018-Jun-21 05:00N 38°02' E 023°32'0 0.0
2018-Jun-21 04:30N 38°02' E 023°32'0 0.0
2018-Jun-21 04:01N 38°02' E 023°32'0 0.0
2018-Jun-21 03:31N 38°02' E 023°32'0 0.0
2018-Jun-21 03:00N 38°02' E 023°32'0 0.0
2018-Jun-21 02:31N 38°02' E 023°32'0 0.0
2018-Jun-21 02:00N 38°02' E 023°32'0 0.0
2018-Jun-21 01:30N 38°02' E 023°32'0 0.0
2018-Jun-21 01:00N 38°02' E 023°32'0 0.0
2018-Jun-21 00:30N 38°02' E 023°32'0 0.0
2018-Jun-21 00:01N 38°02' E 023°32'0 0.0
2018-Jun-20 23:31N 38°02' E 023°32'0 0.0
2018-Jun-20 23:00N 38°02' E 023°32'0 0.0
2018-Jun-20 22:30N 38°02' E 023°32'0 0.0
2018-Jun-20 22:00N 38°02' E 023°32'0 0.0
2018-Jun-20 21:30N 38°02' E 023°32'0 0.0
2018-Jun-20 21:00N 38°02' E 023°32'0 0.0
2018-Jun-20 20:31N 38°02' E 023°32'0 0.0
2018-Jun-20 20:00N 38°02' E 023°32'0 0.0
2018-Jun-20 19:31N 38°02' E 023°32'0 0.0
2018-Jun-20 19:01N 38°02' E 023°32'0 0.0
2018-Jun-20 18:31N 38°02' E 023°32'0 0.0
2018-Jun-20 18:00N 38°02' E 023°32'0 0.1
2018-Jun-20 17:30N 38°02' E 023°32'0 0.0
2018-Jun-20 17:00N 38°02' E 023°32'0 0.0
2018-Jun-20 16:31N 38°02' E 023°32'0 0.0
2018-Jun-20 16:01N 38°02' E 023°32'0 0.0
2018-Jun-20 15:30N 38°02' E 023°32'0 0.0
2018-Jun-20 15:00N 38°02' E 023°32'0 0.0
2018-Jun-20 14:31N 38°02' E 023°32'0 0.0
2018-Jun-20 14:01N 38°02' E 023°32'0 0.0
2018-Jun-20 13:30N 38°02' E 023°32'0 0.0
2018-Jun-20 13:00N 38°02' E 023°32'0 0.0
2018-Jun-20 12:31N 38°02' E 023°32'0 0.0
2018-Jun-20 12:00N 38°02' E 023°32'0 0.0
2018-Jun-20 11:31N 38°02' E 023°32'0 0.0
2018-Jun-20 11:00N 38°02' E 023°32'0 0.0
2018-Jun-20 10:30N 38°02' E 023°32'0 0.0
2018-Jun-20 10:00N 38°02' E 023°32'0 0.0
2018-Jun-20 09:30N 38°02' E 023°32'0 0.1
2018-Jun-20 09:00N 38°02' E 023°32'0 0.0
2018-Jun-20 08:30N 38°02' E 023°32'0 0.0
2018-Jun-20 08:00N 38°02' E 023°32'0 0.0
2018-Jun-20 07:30N 38°02' E 023°32'0 0.0
2018-Jun-20 07:00N 38°02' E 023°32'0 0.0
2018-Jun-20 06:31N 38°02' E 023°32'0 0.0
2018-Jun-20 06:00N 38°02' E 023°32'0 0.0
2018-Jun-20 05:31N 38°02' E 023°32'0 0.0
2018-Jun-20 05:00N 38°02' E 023°32'0 0.0
2018-Jun-20 04:30N 38°02' E 023°32'0 0.0
2018-Jun-20 04:00N 38°02' E 023°32'0 0.0
2018-Jun-20 03:30N 38°02' E 023°32'0 0.0
2018-Jun-20 03:00N 38°02' E 023°32'0 0.2
2018-Jun-20 02:31N 38°02' E 023°32'3 6.1
2018-Jun-20 02:01N 38°02' E 023°36'0 0.0
2018-Jun-20 01:31N 38°02' E 023°36'0 0.0
2018-Jun-20 01:00N 38°02' E 023°36'0 0.0
2018-Jun-20 00:30N 38°02' E 023°36'0 0.0
2018-Jun-20 00:00N 38°02' E 023°36'0 0.0
2018-Jun-19 23:30N 38°02' E 023°36'0 0.0
2018-Jun-19 23:00N 38°02' E 023°36'0 0.0
2018-Jun-19 22:30N 38°02' E 023°36'0 0.0
2018-Jun-19 22:01N 38°02' E 023°36'0 0.0
2018-Jun-19 21:31N 38°02' E 023°36'0 0.0
2018-Jun-19 21:01N 38°02' E 023°36'0 0.6
2018-Jun-19 20:30N 38°02' E 023°35'3 5.6
2018-Jun-19 20:01N 38°02' E 023°32'0 0.0
2018-Jun-19 19:30N 38°02' E 023°32'0 0.0
2018-Jun-19 19:00N 38°02' E 023°32'0 0.0
2018-Jun-19 18:30N 38°02' E 023°32'0 0.0
2018-Jun-19 18:00N 38°02' E 023°32'0 0.0
2018-Jun-19 17:31N 38°02' E 023°32'0 0.0
2018-Jun-19 17:00N 38°02' E 023°32'0 0.0
2018-Jun-19 16:30N 38°02' E 023°32'0 0.0
2018-Jun-19 16:00N 38°02' E 023°32'0 0.0
2018-Jun-19 15:30N 38°02' E 023°32'0 0.0
2018-Jun-19 15:00N 38°02' E 023°32'0 0.0
2018-Jun-19 14:30N 38°02' E 023°32'0 0.0
2018-Jun-19 14:01N 38°02' E 023°32'0 0.0
2018-Jun-19 13:31N 38°02' E 023°32'1 1.3
2018-Jun-19 12:59N 38°02' E 023°33'0 0.0
2018-Jun-19 12:30N 38°02' E 023°33'0 0.0
2018-Jun-19 12:00N 38°02' E 023°33'0 0.0
2018-Jun-19 11:30N 38°02' E 023°33'0 0.0
2018-Jun-19 11:00N 38°02' E 023°33'0 0.0
2018-Jun-19 10:30N 38°02' E 023°33'0 0.0
2018-Jun-19 10:00N 38°02' E 023°33'0 0.0
2018-Jun-19 09:30N 38°02' E 023°33'0 0.0
2018-Jun-19 09:00N 38°02' E 023°33'0 0.0
2018-Jun-19 08:30N 38°02' E 023°33'0 0.0
2018-Jun-19 08:00N 38°02' E 023°33'0 0.0
2018-Jun-19 07:30N 38°02' E 023°33'0 0.0
2018-Jun-19 07:00N 38°02' E 023°33'0 0.0
2018-Jun-19 06:31N 38°02' E 023°33'0 0.0
2018-Jun-19 06:00N 38°02' E 023°33'0 0.9
2018-Jun-19 05:30N 38°02' E 023°32'0 0.0
2018-Jun-19 05:00N 38°02' E 023°32'1 2.3
2018-Jun-19 04:30N 38°00' E 023°33'4 8.4
2018-Jun-19 04:01N 37°57' E 023°35'4 7.5
2018-Jun-19 03:31N 37°53' E 023°37'510.9
2018-Jun-19 03:01N 37°49' E 023°41'510.6
2018-Jun-19 02:30N 37°44' E 023°43'510.8
2018-Jun-19 02:00N 37°39' E 023°46'610.8
2018-Jun-19 01:28N 37°33' E 023°49'62 1.7
2018-Jun-17 13:13N 37°05' E 024°59'210.2
2018-Jun-17 13:01N 37°05' E 025°01'6 1.5
2018-Jun-17 08:59N 37°05' E 025°09'0 0.2
2018-Jun-17 08:07N 37°06' E 025°09'0 0.1
2018-Jun-17 07:59N 37°06' E 025°09'0 0.0
2018-Jun-17 07:24N 37°06' E 025°09'2 3.8
2018-Jun-17 07:00N 37°07' E 025°08'510.9
2018-Jun-17 06:30N 37°10' E 025°14'510.4
2018-Jun-17 06:00N 37°08' E 025°20'3 5.1
2018-Jun-17 05:31N 37°06' E 025°22'0 0.0
2018-Jun-17 05:00N 37°06' E 025°22'0 0.0
2018-Jun-17 04:31N 37°06' E 025°22'0 0.0
2018-Jun-17 04:01N 37°06' E 025°22'0 0.0
2018-Jun-17 03:30N 37°06' E 025°22'0 0.0
2018-Jun-17 03:00N 37°06' E 025°22'1 1.2
2018-Jun-17 02:30N 37°06' E 025°22'0 0.0
2018-Jun-17 02:00N 37°06' E 025°22'0 0.1
2018-Jun-17 01:30N 37°06' E 025°22'0 0.0
2018-Jun-17 01:00N 37°06' E 025°22'0 0.0
2018-Jun-17 00:30N 37°06' E 025°22'0 0.0
2018-Jun-17 00:01N 37°06' E 025°22'0 0.1
2018-Jun-16 23:31N 37°06' E 025°22'0 0.0
2018-Jun-16 23:01N 37°06' E 025°22'0 0.0
2018-Jun-16 22:31N 37°06' E 025°22'0 0.0
2018-Jun-16 22:00N 37°06' E 025°22'0 0.0
2018-Jun-16 21:30N 37°06' E 025°22'0 0.0
2018-Jun-16 21:00N 37°06' E 025°22'0 0.0
2018-Jun-16 20:30N 37°06' E 025°22'0 0.0
2018-Jun-16 20:00N 37°06' E 025°22'0 0.1
2018-Jun-16 19:30N 37°06' E 025°22'0 0.0
2018-Jun-16 19:01N 37°06' E 025°22'0 0.0
2018-Jun-16 18:30N 37°06' E 025°22'3 5.1
2018-Jun-16 18:00N 37°08' E 025°23'611.4
2018-Jun-16 17:30N 37°12' E 025°29'7 9.8
2018-Jun-16 16:46N 37°10' E 025°37'310.5
2018-Jun-16 16:30N 37°08' E 025°40'  
Track history (hours):
 
Tides and Currents Weather Stations Pressure Air Temp Water Temp Dewpoint Dewpoint Depression Visibility Wind Speed Wind Dir Waves Ship Positions

Apiliotis

Last reported at 2018-Jun-21 19:27 UTC. Time now 2018-Jun-23 09:54 UTC.
Position N 37°22' E 023°60'.

Length 79 m; draft 4.5 m.

Type: Ship. MMSI: 240438000.

Date/timePositionNaut miles runAvg speedWind from/ knotsBaromVisibWave heightAir tempDewpointWater temp
2018-Jun-21 19:27N 37°22' E 023°60'6 8.7
2018-Jun-21 18:47N 37°26' E 023°55'3 8.6
2018-Jun-21 18:29N 37°28' E 023°52'5 8.8
2018-Jun-21 17:54N 37°32' E 023°48'3 8.6
2018-Jun-21 17:31N 37°35' E 023°46'4 8.6
2018-Jun-21 17:00N 37°38' E 023°43'4 8.7
2018-Jun-21 16:31N 37°42' E 023°41'4 8.7
2018-Jun-21 16:00N 37°46' E 023°38'4 8.5
2018-Jun-21 15:31N 37°50' E 023°37'4 8.4
2018-Jun-21 15:01N 37°54' E 023°36'4 7.2
2018-Jun-21 14:31N 37°57' E 023°34'5 9.4
2018-Jun-21 14:01N 38°02' E 023°32'0 0.4
2018-Jun-21 13:30N 38°02' E 023°32'1 1.2
2018-Jun-21 13:00N 38°02' E 023°32'0 0.1
2018-Jun-21 12:30N 38°02' E 023°32'0 0.0
2018-Jun-21 12:01N 38°02' E 023°32'0 0.0
2018-Jun-21 11:31N 38°02' E 023°32'0 0.0
2018-Jun-21 11:00N 38°02' E 023°32'0 0.0
2018-Jun-21 10:30N 38°02' E 023°32'0 0.0
2018-Jun-21 10:00N 38°02' E 023°32'0 0.1
2018-Jun-21 09:30N 38°02' E 023°32'0 0.0
2018-Jun-21 09:01N 38°02' E 023°32'0 0.0
2018-Jun-21 08:31N 38°02' E 023°32'0 0.0
2018-Jun-21 08:00N 38°02' E 023°32'0 0.0
2018-Jun-21 07:30N 38°02' E 023°32'0 0.0
2018-Jun-21 07:01N 38°02' E 023°32'0 0.0
2018-Jun-21 06:31N 38°02' E 023°32'0 0.0
2018-Jun-21 06:00N 38°02' E 023°32'0 0.0
2018-Jun-21 05:30N 38°02' E 023°32'0 0.0
2018-Jun-21 05:00N 38°02' E 023°32'0 0.0
2018-Jun-21 04:30N 38°02' E 023°32'0 0.0
2018-Jun-21 04:01N 38°02' E 023°32'0 0.0
2018-Jun-21 03:31N 38°02' E 023°32'0 0.0
2018-Jun-21 03:00N 38°02' E 023°32'0 0.0
2018-Jun-21 02:31N 38°02' E 023°32'0 0.0
2018-Jun-21 02:00N 38°02' E 023°32'0 0.0
2018-Jun-21 01:30N 38°02' E 023°32'0 0.0
2018-Jun-21 01:00N 38°02' E 023°32'0 0.0
2018-Jun-21 00:30N 38°02' E 023°32'0 0.0
2018-Jun-21 00:01N 38°02' E 023°32'0 0.0
2018-Jun-20 23:31N 38°02' E 023°32'0 0.0
2018-Jun-20 23:00N 38°02' E 023°32'0 0.0
2018-Jun-20 22:30N 38°02' E 023°32'0 0.0
2018-Jun-20 22:00N 38°02' E 023°32'0 0.0
2018-Jun-20 21:30N 38°02' E 023°32'0 0.0
2018-Jun-20 21:00N 38°02' E 023°32'0 0.0
2018-Jun-20 20:31N 38°02' E 023°32'0 0.0
2018-Jun-20 20:00N 38°02' E 023°32'0 0.0
2018-Jun-20 19:31N 38°02' E 023°32'0 0.0
2018-Jun-20 19:01N 38°02' E 023°32'0 0.0
2018-Jun-20 18:31N 38°02' E 023°32'0 0.0
2018-Jun-20 18:00N 38°02' E 023°32'0 0.1
2018-Jun-20 17:30N 38°02' E 023°32'0 0.0
2018-Jun-20 17:00N 38°02' E 023°32'0 0.0
2018-Jun-20 16:31N 38°02' E 023°32'0 0.0
2018-Jun-20 16:01N 38°02' E 023°32'0 0.0
2018-Jun-20 15:30N 38°02' E 023°32'0 0.0
2018-Jun-20 15:00N 38°02' E 023°32'0 0.0
2018-Jun-20 14:31N 38°02' E 023°32'0 0.0
2018-Jun-20 14:01N 38°02' E 023°32'0 0.0
2018-Jun-20 13:30N 38°02' E 023°32'0 0.0
2018-Jun-20 13:00N 38°02' E 023°32'0 0.0
2018-Jun-20 12:31N 38°02' E 023°32'0 0.0
2018-Jun-20 12:00N 38°02' E 023°32'0 0.0
2018-Jun-20 11:31N 38°02' E 023°32'0 0.0
2018-Jun-20 11:00N 38°02' E 023°32'0 0.0
2018-Jun-20 10:30N 38°02' E 023°32'0 0.0
2018-Jun-20 10:00N 38°02' E 023°32'0 0.0
2018-Jun-20 09:30N 38°02' E 023°32'0 0.1
2018-Jun-20 09:00N 38°02' E 023°32'0 0.0
2018-Jun-20 08:30N 38°02' E 023°32'0 0.0
2018-Jun-20 08:00N 38°02' E 023°32'0 0.0
2018-Jun-20 07:30N 38°02' E 023°32'0 0.0
2018-Jun-20 07:00N 38°02' E 023°32'0 0.0
2018-Jun-20 06:31N 38°02' E 023°32'0 0.0
2018-Jun-20 06:00N 38°02' E 023°32'0 0.0
2018-Jun-20 05:31N 38°02' E 023°32'0 0.0
2018-Jun-20 05:00N 38°02' E 023°32'0 0.0
2018-Jun-20 04:30N 38°02' E 023°32'0 0.0
2018-Jun-20 04:00N 38°02' E 023°32'0 0.0
2018-Jun-20 03:30N 38°02' E 023°32'0 0.0
2018-Jun-20 03:00N 38°02' E 023°32'0 0.2
2018-Jun-20 02:31N 38°02' E 023°32'3 6.1
2018-Jun-20 02:01N 38°02' E 023°36'0 0.0
2018-Jun-20 01:31N 38°02' E 023°36'0 0.0
2018-Jun-20 01:00N 38°02' E 023°36'0 0.0
2018-Jun-20 00:30N 38°02' E 023°36'0 0.0
2018-Jun-20 00:00N 38°02' E 023°36'0 0.0
2018-Jun-19 23:30N 38°02' E 023°36'0 0.0
2018-Jun-19 23:00N 38°02' E 023°36'0 0.0
2018-Jun-19 22:30N 38°02' E 023°36'0 0.0
2018-Jun-19 22:01N 38°02' E 023°36'0 0.0
2018-Jun-19 21:31N 38°02' E 023°36'0 0.0
2018-Jun-19 21:01N 38°02' E 023°36'0 0.6
2018-Jun-19 20:30N 38°02' E 023°35'3 5.6
2018-Jun-19 20:01N 38°02' E 023°32'0 0.0
2018-Jun-19 19:30N 38°02' E 023°32'0 0.0
2018-Jun-19 19:00N 38°02' E 023°32'0 0.0
2018-Jun-19 18:30N 38°02' E 023°32'0 0.0
2018-Jun-19 18:00N 38°02' E 023°32'0 0.0
2018-Jun-19 17:31N 38°02' E 023°32'0 0.0
2018-Jun-19 17:00N 38°02' E 023°32'0 0.0
2018-Jun-19 16:30N 38°02' E 023°32'0 0.0
2018-Jun-19 16:00N 38°02' E 023°32'0 0.0
2018-Jun-19 15:30N 38°02' E 023°32'0 0.0
2018-Jun-19 15:00N 38°02' E 023°32'0 0.0
2018-Jun-19 14:30N 38°02' E 023°32'0 0.0
2018-Jun-19 14:01N 38°02' E 023°32'0 0.0
2018-Jun-19 13:31N 38°02' E 023°32'1 1.3
2018-Jun-19 12:59N 38°02' E 023°33'0 0.0
2018-Jun-19 12:30N 38°02' E 023°33'0 0.0
2018-Jun-19 12:00N 38°02' E 023°33'0 0.0
2018-Jun-19 11:30N 38°02' E 023°33'0 0.0
2018-Jun-19 11:00N 38°02' E 023°33'0 0.0
2018-Jun-19 10:30N 38°02' E 023°33'0 0.0
2018-Jun-19 10:00N 38°02' E 023°33'0 0.0
2018-Jun-19 09:30N 38°02' E 023°33'0 0.0
2018-Jun-19 09:00N 38°02' E 023°33'0 0.0
2018-Jun-19 08:30N 38°02' E 023°33'0 0.0
2018-Jun-19 08:00N 38°02' E 023°33'0 0.0
2018-Jun-19 07:30N 38°02' E 023°33'0 0.0
2018-Jun-19 07:00N 38°02' E 023°33'0 0.0
2018-Jun-19 06:31N 38°02' E 023°33'0 0.0
2018-Jun-19 06:00N 38°02' E 023°33'0 0.9
2018-Jun-19 05:30N 38°02' E 023°32'0 0.0
2018-Jun-19 05:00N 38°02' E 023°32'1 2.3
2018-Jun-19 04:30N 38°00' E 023°33'4 8.4
2018-Jun-19 04:01N 37°57' E 023°35'4 7.5
2018-Jun-19 03:31N 37°53' E 023°37'510.9
2018-Jun-19 03:01N 37°49' E 023°41'510.6
2018-Jun-19 02:30N 37°44' E 023°43'510.8
2018-Jun-19 02:00N 37°39' E 023°46'610.8
2018-Jun-19 01:28N 37°33' E 023°49'62 1.7
2018-Jun-17 13:13N 37°05' E 024°59'210.2
2018-Jun-17 13:01N 37°05' E 025°01'6 1.5
2018-Jun-17 08:59N 37°05' E 025°09'0 0.2
2018-Jun-17 08:07N 37°06' E 025°09'0 0.1
2018-Jun-17 07:59N 37°06' E 025°09'0 0.0
2018-Jun-17 07:24N 37°06' E 025°09'2 3.8
2018-Jun-17 07:00N 37°07' E 025°08'510.9
2018-Jun-17 06:30N 37°10' E 025°14'510.4
2018-Jun-17 06:00N 37°08' E 025°20'3 5.1
2018-Jun-17 05:31N 37°06' E 025°22'0 0.0
2018-Jun-17 05:00N 37°06' E 025°22'0 0.0
2018-Jun-17 04:31N 37°06' E 025°22'0 0.0
2018-Jun-17 04:01N 37°06' E 025°22'0 0.0
2018-Jun-17 03:30N 37°06' E 025°22'0 0.0
2018-Jun-17 03:00N 37°06' E 025°22'1 1.2
2018-Jun-17 02:30N 37°06' E 025°22'0 0.0
2018-Jun-17 02:00N 37°06' E 025°22'0 0.1
2018-Jun-17 01:30N 37°06' E 025°22'0 0.0
2018-Jun-17 01:00N 37°06' E 025°22'0 0.0
2018-Jun-17 00:30N 37°06' E 025°22'0 0.0
2018-Jun-17 00:01N 37°06' E 025°22'0 0.1
2018-Jun-16 23:31N 37°06' E 025°22'0 0.0
2018-Jun-16 23:01N 37°06' E 025°22'0 0.0
2018-Jun-16 22:31N 37°06' E 025°22'0 0.0
2018-Jun-16 22:00N 37°06' E 025°22'0 0.0
2018-Jun-16 21:30N 37°06' E 025°22'0 0.0
2018-Jun-16 21:00N 37°06' E 025°22'0 0.0
2018-Jun-16 20:30N 37°06' E 025°22'0 0.0
2018-Jun-16 20:00N 37°06' E 025°22'0 0.1
2018-Jun-16 19:30N 37°06' E 025°22'0 0.0
2018-Jun-16 19:01N 37°06' E 025°22'0 0.0
2018-Jun-16 18:30N 37°06' E 025°22'3 5.1
2018-Jun-16 18:00N 37°08' E 025°23'611.4
2018-Jun-16 17:30N 37°12' E 025°29'7 9.8
2018-Jun-16 16:46N 37°10' E 025°37'310.5
2018-Jun-16 16:30N 37°08' E 025°40'  

Dump ship's entire track history